createdAt,value
2023-05-25T00:00:14.210Z,100567.46
2023-05-25T00:02:44.590Z,100567.36
2023-05-25T00:05:11.424Z,100563.70
2023-05-25T00:07:38.819Z,100562.14
2023-05-25T00:10:07.059Z,100560.62
2023-05-25T00:12:34.348Z,100559.27
2023-05-25T00:15:01.176Z,100558.80
2023-05-25T00:17:30.086Z,100561.74
2023-05-25T00:19:58.225Z,100557.43
2023-05-25T00:22:29.212Z,100560.45
2023-05-25T00:24:56.078Z,100560.67
2023-05-25T00:27:23.144Z,100567.66
2023-05-25T00:29:49.708Z,100571.19
2023-05-25T00:32:16.456Z,100571.50
2023-05-25T00:34:43.103Z,100574.08
2023-05-25T00:37:10.734Z,100579.48
2023-05-25T00:39:37.318Z,100581.51
2023-05-25T00:42:05.117Z,100584.23
2023-05-25T00:44:32.290Z,100584.44
2023-05-25T00:46:59.961Z,100584.21
2023-05-25T00:49:27.464Z,100584.80
2023-05-25T00:51:54.372Z,100580.88
2023-05-25T00:54:21.934Z,100578.89
2023-05-25T00:56:57.247Z,100582.70
2023-05-25T00:59:30.939Z,100585.43
2023-05-25T01:01:59.404Z,100584.60
2023-05-25T01:04:28.402Z,100580.58
2023-05-25T01:06:57.939Z,100580.13
2023-05-25T01:09:28.566Z,100580.66
2023-05-25T01:11:56.699Z,100581.46
2023-05-25T01:14:24.954Z,100583.50
2023-05-25T01:16:52.257Z,100583.80
2023-05-25T01:19:18.979Z,100586.30
2023-05-25T01:22:03.804Z,100584.53
2023-05-25T01:24:53.640Z,100583.90
2023-05-25T01:27:33.411Z,100582.85
2023-05-25T01:30:01.463Z,100585.45
2023-05-25T01:32:28.896Z,100583.86
2023-05-25T01:34:58.024Z,100585.03
2023-05-25T01:37:26.482Z,100589.02
2023-05-25T01:39:53.121Z,100591.27
2023-05-25T01:42:19.756Z,100588.62
2023-05-25T01:44:46.544Z,100588.98
2023-05-25T01:47:26.138Z,100590.05
2023-05-25T01:50:21.534Z,100589.32
2023-05-25T01:52:57.275Z,100589.14
2023-05-25T01:55:28.992Z,100589.23
2023-05-25T01:57:58.614Z,100588.29
2023-05-25T02:00:31.443Z,100588.45
2023-05-25T02:02:58.467Z,100588.08
2023-05-25T02:05:27.923Z,100585.02
2023-05-25T02:07:54.882Z,100582.38
2023-05-25T02:10:21.631Z,100588.52
2023-05-25T02:12:49.054Z,100586.83
2023-05-25T02:17:57.802Z,100590.10
2023-05-25T02:20:24.975Z,100595.20
2023-05-25T02:22:51.803Z,100599.17
2023-05-25T02:25:18.360Z,100595.91
2023-05-25T02:27:45.336Z,100595.15
2023-05-25T02:30:12.143Z,100593.89
2023-05-25T02:32:38.781Z,100597.27
2023-05-25T02:35:06.470Z,100601.72
2023-05-25T02:37:33.592Z,100601.17
2023-05-25T02:40:00.246Z,100603.90
2023-05-25T02:42:26.902Z,100606.84
2023-05-25T02:44:53.486Z,100601.57
2023-05-25T02:47:20.295Z,100597.27
2023-05-25T02:49:47.069Z,100600.60
2023-05-25T02:52:13.702Z,100600.67
2023-05-25T02:54:40.432Z,100605.04
2023-05-25T02:57:08.477Z,100602.86
2023-05-25T02:59:35.293Z,100596.64
2023-05-25T03:02:02.760Z,100599.80
2023-05-25T03:04:31.254Z,100598.48
2023-05-25T03:06:58.550Z,100604.34
2023-05-25T03:09:26.380Z,100604.42
2023-05-25T03:11:53.065Z,100608.00
2023-05-25T03:14:20.546Z,100609.27
2023-05-25T03:16:56.423Z,100612.85
2023-05-25T03:19:23.378Z,100616.23
2023-05-25T03:21:50.390Z,100619.23
2023-05-25T03:24:18.338Z,100618.86
2023-05-25T03:26:45.077Z,100622.66
2023-05-25T03:29:11.773Z,100627.77
2023-05-25T03:31:38.442Z,100629.52
2023-05-25T03:34:06.429Z,100630.33
2023-05-25T03:36:34.271Z,100632.34
2023-05-25T03:39:01.232Z,100635.16
2023-05-25T03:41:28.269Z,100634.59
2023-05-25T03:43:55.326Z,100637.45
2023-05-25T03:46:22.101Z,100638.30
2023-05-25T03:48:48.779Z,100639.73
2023-05-25T03:51:16.487Z,100639.58
2023-05-25T03:53:43.175Z,100639.52
2023-05-25T03:56:09.864Z,100643.59
2023-05-25T03:58:37.357Z,100646.50
2023-05-25T04:01:05.225Z,100644.98
2023-05-25T04:03:33.219Z,100644.20
2023-05-25T04:06:00.851Z,100643.71
2023-05-25T04:08:29.080Z,100640.27
2023-05-25T04:10:56.492Z,100643.21
2023-05-25T04:13:23.182Z,100640.54
2023-05-25T04:15:51.325Z,100640.87
